Harrison, Ohio
Current Conditions -  °F | °C
As of 4:55 AM on Saturday 22 Nov 2014 (Local Time) from KI67 Reporting Station
Overcast Overcast  
Wind Chill: -1°   Ceiling: 4700
Heat Index: -1°   Visibility: 10mi
Dew Point: -3°   Wind: 0mph
Humidity: 86%   Direction: NA
Pressure: 30.31"   Gusts: NA
Location:  39.26°N, 84.82°W
Report Text: KI67 220955Z AUTO 00000KT 10SM SCT029 BKN047 OVC055 M01/M03 A3031 RMK AO1
Loading
Personal Weather Stations






























Interactive Weather Map New forecast layout! Learn more

10-Day Weather Forecast

Advertisements
Track Severe Weather on mobile